Lake Village, AR (71653)

4:11 AM CST on February 28, 2017 (GMT -0600)
Q102 Downtown Greenville | | Change Station

Elev 141 ft 33.41 °N, 91.06 °W | Updated 1 minute ago

Overcast
Overcast
63.9 °F
Feels Like 63.9 °F
N
12.1
Wind Variable Wind from SE
Gusts 18.1 mph

Today
High -- | Low -- °F
--% Chance of Precip.
Yesterday
High -- | Low -- °F
Precip. -- in
Pressure 30.04 in
Visibility 6.0 miles
Clouds Overcast 700 ft
Dew Point 63 °F
Humidity 97%
Rainfall 0.00 in
Snow Depth Not available.
6:34 AM 6:01 PM
Waxing Crescent, 4% visible
METAR KGLH 280953Z AUTO 16011KT 6SM BR OVC007 18/17 A3002 RMK AO2 CIG 006V012 SLP172 T01780167
Pressure 30.04 in
Visibility 6.0 miles
Clouds Overcast 700 ft
Dew Point 63 °F
Humidity 97%
Rainfall 0.00 in
Snow Depth Not available.
6:34 AM 6:01 PM
Waxing Crescent, 4% visible
METAR KGLH 280953Z AUTO 16011KT 6SM BR OVC007 18/17 A3002 RMK AO2 CIG 006V012 SLP172 T01780167

Get Your Daily Forecast Email!

Thanks for signing up!

Be on the lookout for a verification email in your inbox.

You'll start receiving the daily forecast at 8 AM.

×

10-Day Weather Forecast

Almanac

Astronomy

Feb. 28, 2017 Rise Set
Actual Time
Civil Twilight
Nautical Twilight
Astronomical Twilight
Moon
Length of Visible Light
Length of Day
Tomorrow will be .
, % of the Moon is Illuminated

Today's Extremes

State Highs State Lows

Community

WunderPhotos

Upload Photos

1,962,540 photos uploaded!

WunderBlog® & News

Nearby

Air Quality

  Air Quality AQ Index Pollutant
Not available.

Snow Depth

Station Depth Elevation

Earthquake Activity

City Distance Mag. Time & Date
Minimum magnitude displayed is 2.5.

Coastal Water Temperatures

Place Temperature

Stations

Nearby Weather Stations

Station Location Temp. Windchill Dew Point Humidity Wind Precip. Elev Updated Type
                   

Watches & Warnings

There are currently no watches in effect.